createdAt,value
2017-08-05T00:00:03.183Z,821.54
2017-08-05T00:01:03.801Z,821.52
2017-08-05T00:02:04.420Z,821.50
2017-08-05T00:03:05.072Z,821.48
2017-08-05T00:04:05.938Z,821.47
2017-08-05T00:05:06.564Z,821.50
2017-08-05T00:06:07.178Z,821.49
2017-08-05T00:07:07.805Z,821.45
2017-08-05T00:08:08.427Z,821.48
2017-08-05T00:09:09.343Z,821.51
2017-08-05T00:10:09.963Z,821.45
2017-08-05T00:11:10.580Z,821.45
2017-08-05T00:12:11.233Z,821.47
2017-08-05T00:13:11.851Z,821.47
2017-08-05T00:14:12.802Z,821.47
2017-08-05T00:15:13.421Z,821.47
2017-08-05T00:16:14.039Z,821.49
2017-08-05T00:17:14.666Z,821.50
2017-08-05T00:18:15.279Z,821.43
2017-08-05T00:19:16.202Z,821.46
2017-08-05T00:20:16.824Z,821.45
2017-08-05T00:21:17.440Z,821.45
2017-08-05T00:22:18.058Z,821.46
2017-08-05T00:23:18.677Z,821.48
2017-08-05T00:24:19.548Z,821.43
2017-08-05T00:25:20.169Z,821.42
2017-08-05T00:26:20.787Z,821.40
2017-08-05T00:27:21.405Z,821.43
2017-08-05T00:28:22.040Z,821.41
2017-08-05T00:29:22.895Z,821.38
2017-08-05T00:30:23.513Z,821.42
2017-08-05T00:31:24.133Z,821.39
2017-08-05T00:32:24.785Z,821.42
2017-08-05T00:33:25.411Z,821.44
2017-08-05T00:34:26.313Z,821.43
2017-08-05T00:35:26.940Z,821.43
2017-08-05T00:36:27.557Z,821.44
2017-08-05T00:37:28.216Z,821.44
2017-08-05T00:38:28.831Z,821.44
2017-08-05T00:39:29.754Z,821.43
2017-08-05T00:40:30.370Z,821.44
2017-08-05T00:41:30.988Z,821.42
2017-08-05T00:42:31.615Z,821.41
2017-08-05T00:43:32.229Z,821.40
2017-08-05T00:44:33.097Z,821.38
2017-08-05T00:45:33.719Z,821.37
2017-08-05T00:46:34.332Z,821.40
2017-08-05T00:47:34.956Z,821.39
2017-08-05T00:48:35.609Z,821.43
2017-08-05T00:49:36.480Z,821.38
2017-08-05T00:50:37.098Z,821.42
2017-08-05T00:51:37.720Z,821.40
2017-08-05T00:52:38.343Z,821.40
2017-08-05T00:53:38.962Z,821.39
2017-08-05T00:54:39.877Z,821.40
2017-08-05T00:55:40.503Z,821.41
2017-08-05T00:56:41.117Z,821.43
2017-08-05T00:57:41.735Z,821.42
2017-08-05T00:58:42.361Z,821.43
2017-08-05T00:59:43.230Z,821.40
2017-08-05T01:00:43.849Z,821.42
2017-08-05T01:01:44.472Z,821.44
2017-08-05T01:02:45.088Z,821.41
2017-08-05T01:03:45.710Z,821.48
2017-08-05T01:04:46.572Z,821.44
2017-08-05T01:05:47.197Z,821.46
2017-08-05T01:06:47.818Z,821.51
2017-08-05T01:07:48.433Z,821.42
2017-08-05T01:08:49.051Z,821.43
2017-08-05T01:09:49.921Z,821.42
2017-08-05T01:10:50.573Z,821.44
2017-08-05T01:11:51.233Z,821.44
2017-08-05T01:12:51.850Z,821.41
2017-08-05T01:13:52.472Z,821.47
2017-08-05T01:14:53.428Z,821.45
2017-08-05T01:15:54.043Z,821.45
2017-08-05T01:16:54.694Z,821.44
2017-08-05T01:17:55.313Z,821.46
2017-08-05T01:18:55.934Z,821.44
2017-08-05T01:19:56.807Z,821.43
2017-08-05T01:20:57.437Z,821.46
2017-08-05T01:21:58.051Z,821.44
2017-08-05T01:22:58.667Z,821.45
2017-08-05T01:23:59.285Z,821.41
2017-08-05T01:25:00.152Z,821.39
2017-08-05T01:26:00.776Z,821.41
2017-08-05T01:27:01.393Z,821.43
2017-08-05T01:28:02.014Z,821.46
2017-08-05T01:29:02.637Z,821.47
2017-08-05T01:30:03.553Z,821.47
2017-08-05T01:31:04.175Z,821.47
2017-08-05T01:32:04.791Z,821.41
2017-08-05T01:33:05.411Z,821.41
2017-08-05T01:34:06.035Z,821.44
2017-08-05T01:35:06.905Z,821.41
2017-08-05T01:36:07.521Z,821.42
2017-08-05T01:37:08.140Z,821.44
2017-08-05T01:38:08.789Z,821.44
2017-08-05T01:39:09.439Z,821.42
2017-08-05T01:40:10.313Z,821.44
2017-08-05T01:41:10.934Z,821.40
2017-08-05T01:42:11.590Z,821.44
2017-08-05T01:43:12.205Z,821.43
2017-08-05T01:44:12.822Z,821.41
2017-08-05T01:45:13.689Z,821.46
2017-08-05T01:46:14.340Z,821.44
2017-08-05T01:47:14.964Z,821.41
2017-08-05T01:48:15.585Z,821.45
2017-08-05T01:49:16.201Z,821.39
2017-08-05T01:50:17.118Z,821.39
2017-08-05T01:51:17.737Z,821.36
2017-08-05T01:52:18.355Z,821.36
2017-08-05T01:53:18.972Z,821.36
2017-08-05T01:54:19.641Z,821.38
2017-08-05T01:55:20.573Z,821.42
2017-08-05T01:56:21.191Z,821.39
2017-08-05T01:57:21.809Z,821.40
2017-08-05T01:58:22.431Z,821.37
2017-08-05T01:59:23.054Z,821.31
2017-08-05T02:00:23.924Z,821.31
2017-08-05T02:01:24.539Z,821.31
2017-08-05T02:02:25.161Z,821.32
2017-08-05T02:03:25.776Z,821.29
2017-08-05T02:04:26.394Z,821.30
2017-08-05T02:05:27.260Z,821.34
2017-08-05T02:06:27.917Z,821.32
2017-08-05T02:07:28.532Z,821.32
2017-08-05T02:08:29.155Z,821.33
2017-08-05T02:09:29.770Z,821.29
2017-08-05T02:10:30.643Z,821.30
2017-08-05T02:11:31.257Z,821.33
2017-08-05T02:12:31.879Z,821.32
2017-08-05T02:13:32.496Z,821.31
2017-08-05T02:14:33.112Z,821.29
2017-08-05T02:15:33.987Z,821.26
2017-08-05T02:16:34.609Z,821.26
2017-08-05T02:17:35.225Z,821.27
2017-08-05T02:18:35.849Z,821.27
2017-08-05T02:19:36.467Z,821.28
2017-08-05T02:20:37.333Z,821.25
2017-08-05T02:21:37.951Z,821.28
2017-08-05T02:22:38.573Z,821.24
2017-08-05T02:23:39.189Z,821.25
2017-08-05T02:24:39.807Z,821.27
2017-08-05T02:25:40.729Z,821.27
2017-08-05T02:26:41.343Z,821.28
2017-08-05T02:27:41.960Z,821.29
2017-08-05T02:28:42.580Z,821.27
2017-08-05T02:29:43.194Z,821.26
2017-08-05T02:30:44.112Z,821.26
2017-08-05T02:31:44.734Z,821.27
2017-08-05T02:32:45.387Z,821.24
2017-08-05T02:33:46.035Z,821.24
2017-08-05T02:34:46.652Z,821.21
2017-08-05T02:35:47.611Z,821.21
2017-08-05T02:36:48.256Z,821.18
2017-08-05T02:37:48.869Z,821.17
2017-08-05T02:38:49.489Z,821.17
2017-08-05T02:39:50.107Z,821.15
2017-08-05T02:40:50.975Z,821.14
2017-08-05T02:41:51.600Z,821.14
2017-08-05T02:42:52.217Z,821.10
2017-08-05T02:43:52.873Z,821.14
2017-08-05T02:44:53.487Z,821.11
2017-08-05T02:45:54.357Z,821.12
2017-08-05T02:46:54.975Z,821.11
2017-08-05T02:47:55.627Z,821.09
2017-08-05T02:48:56.248Z,821.08
2017-08-05T02:49:56.866Z,821.10
2017-08-05T02:50:57.739Z,821.08
2017-08-05T02:51:58.355Z,821.12
2017-08-05T02:52:59.014Z,821.12
2017-08-05T02:53:59.625Z,821.10
2017-08-05T02:55:00.243Z,821.13
2017-08-05T02:56:01.115Z,821.12
2017-08-05T02:57:01.731Z,821.12
2017-08-05T02:58:02.355Z,821.14
2017-08-05T02:59:02.970Z,821.13
2017-08-05T03:00:03.589Z,821.12
2017-08-05T03:01:04.464Z,821.11
2017-08-05T03:02:05.078Z,821.10
2017-08-05T03:03:05.731Z,821.14
2017-08-05T03:04:06.354Z,821.11
2017-08-05T03:05:06.969Z,821.13
2017-08-05T03:06:07.835Z,821.13
2017-08-05T03:07:08.453Z,821.12
2017-08-05T03:08:09.069Z,821.10
2017-08-05T03:09:09.692Z,821.11
2017-08-05T03:10:10.312Z,821.12
2017-08-05T03:11:11.180Z,821.14
2017-08-05T03:12:11.806Z,821.14
2017-08-05T03:13:12.420Z,821.14
2017-08-05T03:14:13.033Z,821.15
2017-08-05T03:15:13.650Z,821.17
2017-08-05T03:16:14.516Z,821.15
2017-08-05T03:17:15.134Z,821.16
2017-08-05T03:18:15.753Z,821.16
2017-08-05T03:19:16.402Z,821.12
2017-08-05T03:20:17.018Z,821.12
2017-08-05T03:21:17.889Z,821.10
2017-08-05T03:22:18.508Z,821.13
2017-08-05T03:23:19.125Z,821.08
2017-08-05T03:24:19.743Z,821.07
2017-08-05T03:25:20.365Z,821.07
2017-08-05T03:26:21.227Z,821.10
2017-08-05T03:27:21.851Z,821.09
2017-08-05T03:28:22.465Z,821.07
2017-08-05T03:29:23.083Z,821.04
2017-08-05T03:30:23.702Z,821.06
2017-08-05T03:31:24.620Z,821.07
2017-08-05T03:32:25.236Z,821.10
2017-08-05T03:33:25.854Z,821.05
2017-08-05T03:34:26.472Z,821.11
2017-08-05T03:35:27.087Z,821.10
2017-08-05T03:36:27.954Z,821.09
2017-08-05T03:37:28.572Z,821.10
2017-08-05T03:38:29.188Z,821.09
2017-08-05T03:39:29.813Z,821.10
2017-08-05T03:40:30.427Z,821.09
2017-08-05T03:41:31.345Z,821.07
2017-08-05T03:42:31.968Z,821.02
2017-08-05T03:43:32.582Z,821.05
2017-08-05T03:44:33.200Z,821.01
2017-08-05T03:45:33.850Z,821.01
2017-08-05T03:46:34.758Z,821.04
2017-08-05T03:47:35.370Z,821.03
2017-08-05T03:48:35.992Z,821.03
2017-08-05T03:49:36.606Z,821.03
2017-08-05T03:50:37.257Z,821.01
2017-08-05T03:51:38.178Z,820.99
2017-08-05T03:52:38.795Z,821.00
2017-08-05T03:53:39.412Z,821.00
2017-08-05T03:54:40.037Z,821.00
2017-08-05T03:55:40.686Z,821.00
2017-08-05T03:56:41.609Z,821.02
2017-08-05T03:57:42.223Z,821.03
2017-08-05T03:58:42.840Z,821.01
2017-08-05T03:59:43.465Z,821.04
2017-08-05T04:00:44.077Z,821.04
2017-08-05T04:01:45.004Z,821.04
2017-08-05T04:02:45.653Z,821.09
2017-08-05T04:03:46.273Z,821.07
2017-08-05T04:04:46.888Z,821.06
2017-08-05T04:05:47.539Z,821.09
2017-08-05T04:06:48.454Z,821.10
2017-08-05T04:07:49.073Z,821.12
2017-08-05T04:08:49.697Z,821.12
2017-08-05T04:09:50.311Z,821.14
2017-08-05T04:10:50.930Z,821.15
2017-08-05T04:11:51.847Z,821.11
2017-08-05T04:12:52.478Z,821.17
2017-08-05T04:13:53.118Z,821.14
2017-08-05T04:14:53.739Z,821.18
2017-08-05T04:15:54.353Z,821.18
2017-08-05T04:16:55.224Z,821.19
2017-08-05T04:17:55.847Z,821.19
2017-08-05T04:18:56.464Z,821.18
2017-08-05T04:19:57.086Z,821.21
2017-08-05T04:20:57.706Z,821.23
2017-08-05T04:21:58.626Z,821.20
2017-08-05T04:22:59.242Z,821.22
2017-08-05T04:23:59.860Z,821.21
2017-08-05T04:25:00.478Z,821.20
2017-08-05T04:26:01.095Z,821.22
2017-08-05T04:27:02.017Z,821.20
2017-08-05T04:28:02.632Z,821.21
2017-08-05T04:29:03.252Z,821.25
2017-08-05T04:30:03.869Z,821.23
2017-08-05T04:31:04.488Z,821.25
2017-08-05T04:32:05.361Z,821.25
2017-08-05T04:33:05.976Z,821.23
2017-08-05T04:34:06.599Z,821.24
2017-08-05T04:35:07.218Z,821.23
2017-08-05T04:36:07.834Z,821.24
2017-08-05T04:37:08.708Z,821.23
2017-08-05T04:38:09.330Z,821.26
2017-08-05T04:39:09.950Z,821.23
2017-08-05T04:40:10.564Z,821.30
2017-08-05T04:41:11.183Z,821.29
2017-08-05T04:42:12.064Z,821.28
2017-08-05T04:43:12.674Z,821.27
2017-08-05T04:44:13.293Z,821.25
2017-08-05T04:45:13.916Z,821.28
2017-08-05T04:46:14.564Z,821.25
2017-08-05T04:47:15.488Z,821.30
2017-08-05T04:48:16.104Z,821.27
2017-08-05T04:49:16.729Z,821.26
2017-08-05T04:50:17.348Z,821.28
2017-08-05T04:51:17.968Z,821.28
2017-08-05T04:52:18.833Z,821.27
2017-08-05T04:53:19.451Z,821.26
2017-08-05T04:54:20.108Z,821.28
2017-08-05T04:55:20.723Z,821.27
2017-08-05T04:56:21.347Z,821.32
2017-08-05T04:57:22.211Z,821.33
2017-08-05T04:58:22.828Z,821.33
2017-08-05T04:59:23.445Z,821.32
2017-08-05T05:00:24.069Z,821.30
2017-08-05T05:01:24.684Z,821.32
2017-08-05T05:02:25.686Z,821.35
2017-08-05T05:03:26.312Z,821.36
2017-08-05T05:04:26.933Z,821.40
2017-08-05T05:05:27.547Z,821.40
2017-08-05T05:06:28.164Z,821.36
2017-08-05T05:07:29.030Z,821.39
2017-08-05T05:08:29.645Z,821.41
2017-08-05T05:09:30.266Z,821.40
2017-08-05T05:10:30.884Z,821.39
2017-08-05T05:11:31.502Z,821.42
2017-08-05T05:12:32.407Z,821.40
2017-08-05T05:13:33.023Z,821.45
2017-08-05T05:14:33.646Z,821.46
2017-08-05T05:15:34.261Z,821.49
2017-08-05T05:16:34.879Z,821.49
2017-08-05T05:17:35.780Z,821.49
2017-08-05T05:18:36.397Z,821.53
2017-08-05T05:19:37.020Z,821.53
2017-08-05T05:20:37.639Z,821.51
2017-08-05T05:21:38.262Z,821.50
2017-08-05T05:22:39.127Z,821.52
2017-08-05T05:23:39.745Z,821.51
2017-08-05T05:24:40.363Z,821.50
2017-08-05T05:25:40.984Z,821.51
2017-08-05T05:26:41.601Z,821.52
2017-08-05T05:27:43.021Z,821.49
2017-08-05T05:28:43.646Z,821.50
2017-08-05T05:29:44.260Z,821.51
2017-08-05T05:30:44.881Z,821.54
2017-08-05T05:31:45.495Z,821.52
2017-08-05T05:32:46.414Z,821.52
2017-08-05T05:33:47.037Z,821.55
2017-08-05T05:34:47.658Z,821.54
2017-08-05T05:35:48.274Z,821.54
2017-08-05T05:36:48.891Z,821.54
2017-08-05T05:37:49.808Z,821.51
2017-08-05T05:38:50.425Z,821.50
2017-08-05T05:39:51.045Z,821.50
2017-08-05T05:40:51.663Z,821.47
2017-08-05T05:41:52.280Z,821.49
2017-08-05T05:42:53.200Z,821.55
2017-08-05T05:43:53.817Z,821.53
2017-08-05T05:44:54.434Z,821.55
2017-08-05T05:45:55.053Z,821.54
2017-08-05T05:46:55.673Z,821.56
2017-08-05T05:47:56.589Z,821.57
2017-08-05T05:48:57.209Z,821.54
2017-08-05T05:49:57.863Z,821.59
2017-08-05T05:50:58.511Z,821.56
2017-08-05T05:51:59.129Z,821.53
2017-08-05T05:53:00.048Z,821.56
2017-08-05T05:54:00.665Z,821.51
2017-08-05T05:55:01.285Z,821.52
2017-08-05T05:56:01.905Z,821.53
2017-08-05T05:57:02.528Z,821.54
2017-08-05T05:58:03.423Z,821.50
2017-08-05T05:59:04.046Z,821.52
2017-08-05T06:00:04.662Z,821.49
2017-08-05T06:01:05.278Z,821.51
2017-08-05T06:02:05.929Z,821.52
2017-08-05T06:03:06.796Z,821.51
2017-08-05T06:04:07.447Z,821.49
2017-08-05T06:05:08.070Z,821.53
2017-08-05T06:06:08.690Z,821.49
2017-08-05T06:07:09.309Z,821.52
2017-08-05T06:08:10.260Z,821.48
2017-08-05T06:09:10.877Z,821.51
2017-08-05T06:10:11.495Z,821.47
2017-08-05T06:11:12.112Z,821.48
2017-08-05T06:12:12.731Z,821.46
2017-08-05T06:13:13.598Z,821.49
2017-08-05T06:14:14.221Z,821.47
2017-08-05T06:15:14.844Z,821.45
2017-08-05T06:16:15.462Z,821.45
2017-08-05T06:17:16.080Z,821.43
2017-08-05T06:18:16.999Z,821.42
2017-08-05T06:19:17.622Z,821.40
2017-08-05T06:20:18.238Z,821.42
2017-08-05T06:21:18.858Z,821.44
2017-08-05T06:22:19.476Z,821.43
2017-08-05T06:23:20.349Z,821.43
2017-08-05T06:24:20.966Z,821.44
2017-08-05T06:25:21.588Z,821.47
2017-08-05T06:26:22.209Z,821.41
2017-08-05T06:27:22.825Z,821.38
2017-08-05T06:28:23.699Z,821.41
2017-08-05T06:29:24.314Z,821.39
2017-08-05T06:30:24.933Z,821.38
2017-08-05T06:31:25.584Z,821.40
2017-08-05T06:32:26.202Z,821.41
2017-08-05T06:33:27.071Z,821.39
2017-08-05T06:34:27.702Z,821.42
2017-08-05T06:35:28.321Z,821.41
2017-08-05T06:36:28.938Z,821.39
2017-08-05T06:37:29.562Z,821.41
2017-08-05T06:38:30.482Z,821.41
2017-08-05T06:39:31.100Z,821.39
2017-08-05T06:40:31.726Z,821.35
2017-08-05T06:41:32.347Z,821.35
2017-08-05T06:42:32.963Z,821.38
2017-08-05T06:43:33.832Z,821.35
2017-08-05T06:44:34.451Z,821.30
2017-08-05T06:45:35.073Z,821.38
2017-08-05T06:46:35.700Z,821.37
2017-08-05T06:47:36.352Z,821.37
2017-08-05T06:48:37.221Z,821.38
2017-08-05T06:49:37.841Z,821.38
2017-08-05T06:50:38.460Z,821.43
2017-08-05T06:51:39.079Z,821.41
2017-08-05T06:52:39.701Z,821.40
2017-08-05T06:53:40.569Z,821.42
2017-08-05T06:54:41.188Z,821.42
2017-08-05T06:55:41.815Z,821.41
2017-08-05T06:56:42.430Z,821.41
2017-08-05T06:57:43.049Z,821.40
2017-08-05T06:58:43.926Z,821.38
2017-08-05T06:59:44.547Z,821.41
2017-08-05T07:00:45.169Z,821.41
2017-08-05T07:01:45.788Z,821.42
2017-08-05T07:02:46.438Z,821.42
2017-08-05T07:03:47.370Z,821.44
2017-08-05T07:04:47.981Z,821.42
2017-08-05T07:05:48.620Z,821.43
2017-08-05T07:06:49.241Z,821.45
2017-08-05T07:07:49.861Z,821.43
2017-08-05T07:08:50.781Z,821.49
2017-08-05T07:09:51.401Z,821.45
2017-08-05T07:10:52.021Z,821.51
2017-08-05T07:11:52.640Z,821.49
2017-08-05T07:12:53.257Z,821.49
2017-08-05T07:13:54.130Z,821.48
2017-08-05T07:14:54.751Z,821.49
2017-08-05T07:15:55.375Z,821.48
2017-08-05T07:16:55.997Z,821.47
2017-08-05T07:17:56.615Z,821.49
2017-08-05T07:18:57.485Z,821.50
2017-08-05T07:19:58.107Z,821.48
2017-08-05T07:20:58.726Z,821.51
2017-08-05T07:21:59.346Z,821.51
2017-08-05T07:22:59.966Z,821.54
2017-08-05T07:24:00.835Z,821.48
2017-08-05T07:25:01.454Z,821.47
2017-08-05T07:26:02.075Z,821.50
2017-08-05T07:27:02.696Z,821.49
2017-08-05T07:28:03.317Z,821.48
2017-08-05T07:29:04.236Z,821.47
2017-08-05T07:30:05.157Z,821.41
2017-08-05T07:31:05.779Z,821.38
2017-08-05T07:32:06.399Z,821.35
2017-08-05T07:33:07.022Z,821.38
2017-08-05T07:34:07.673Z,821.44
2017-08-05T07:35:08.599Z,821.45
2017-08-05T07:36:09.266Z,821.49
2017-08-05T07:37:09.917Z,821.51
2017-08-05T07:38:10.540Z,821.54
2017-08-05T07:39:11.160Z,821.56
2017-08-05T07:40:12.081Z,821.52
2017-08-05T07:41:12.708Z,821.55
2017-08-05T07:42:13.326Z,821.50
2017-08-05T07:43:13.948Z,821.48
2017-08-05T07:44:14.574Z,821.51
2017-08-05T07:45:15.489Z,821.51
2017-08-05T07:46:16.147Z,821.50
2017-08-05T07:47:16.769Z,821.54
2017-08-05T07:48:17.399Z,821.53
2017-08-05T07:49:18.049Z,821.56
2017-08-05T07:50:18.921Z,821.57
2017-08-05T07:51:19.574Z,821.54
2017-08-05T07:52:20.196Z,821.58
2017-08-05T07:53:20.824Z,821.61
2017-08-05T07:54:21.448Z,821.60
2017-08-05T07:55:22.317Z,821.60
2017-08-05T07:56:22.937Z,821.63
2017-08-05T07:57:23.558Z,821.70
2017-08-05T07:58:24.183Z,821.70
2017-08-05T07:59:24.805Z,821.69
2017-08-05T08:00:25.683Z,821.66
2017-08-05T08:01:26.308Z,821.72
2017-08-05T08:02:26.931Z,821.71
2017-08-05T08:03:27.550Z,821.70
2017-08-05T08:04:28.208Z,821.72
2017-08-05T08:05:29.084Z,821.76
2017-08-05T08:06:29.703Z,821.76
2017-08-05T08:07:30.330Z,821.76
2017-08-05T08:08:30.948Z,821.72
2017-08-05T08:09:31.571Z,821.75
2017-08-05T08:10:32.442Z,821.75
2017-08-05T08:11:33.064Z,821.74
2017-08-05T08:12:33.691Z,821.79
2017-08-05T08:13:34.315Z,821.76
2017-08-05T08:14:34.935Z,821.78
2017-08-05T08:15:35.863Z,821.75
2017-08-05T08:16:36.482Z,821.74
2017-08-05T08:17:37.102Z,821.76
2017-08-05T08:18:37.725Z,821.78
2017-08-05T08:19:38.346Z,821.75
2017-08-05T08:20:39.276Z,821.75
2017-08-05T08:21:39.894Z,821.74
2017-08-05T08:22:40.516Z,821.75
2017-08-05T08:23:41.143Z,821.77
2017-08-05T08:24:41.762Z,821.75
2017-08-05T08:25:42.684Z,821.74
2017-08-05T08:26:43.306Z,821.76
2017-08-05T08:27:43.928Z,821.76
2017-08-05T08:28:44.591Z,821.82
2017-08-05T08:29:45.214Z,821.76
2017-08-05T08:30:46.131Z,821.77
2017-08-05T08:31:46.758Z,821.78
2017-08-05T08:32:47.378Z,821.80
2017-08-05T08:33:47.999Z,821.85
2017-08-05T08:34:48.622Z,821.82
2017-08-05T08:35:49.545Z,821.85
2017-08-05T08:36:50.178Z,821.84
2017-08-05T08:37:50.798Z,821.87
2017-08-05T08:38:51.419Z,821.90
2017-08-05T08:39:52.045Z,821.90
2017-08-05T08:40:52.956Z,821.92
2017-08-05T08:41:53.578Z,821.92
2017-08-05T08:42:54.200Z,821.96
2017-08-05T08:43:54.826Z,821.96
2017-08-05T08:44:55.445Z,821.94
2017-08-05T08:45:56.402Z,821.90
2017-08-05T08:46:57.026Z,821.95
2017-08-05T08:47:57.647Z,821.94
2017-08-05T08:48:58.271Z,821.94
2017-08-05T08:49:58.901Z,821.93
2017-08-05T08:50:59.777Z,821.95
2017-08-05T08:52:00.404Z,821.92
2017-08-05T08:53:01.024Z,821.97
2017-08-05T08:54:01.652Z,821.94
2017-08-05T08:55:02.271Z,821.94
2017-08-05T08:56:03.195Z,821.97
2017-08-05T08:57:03.851Z,821.92
2017-08-05T08:58:04.472Z,821.92
2017-08-05T08:59:05.094Z,821.99
2017-08-05T09:00:05.716Z,821.95
2017-08-05T09:01:06.589Z,821.97
2017-08-05T09:02:07.220Z,821.98
2017-08-05T09:03:07.840Z,822.01
2017-08-05T09:04:08.463Z,821.95
2017-08-05T09:05:09.084Z,821.95
2017-08-05T09:06:09.990Z,821.92
2017-08-05T09:07:10.618Z,821.90
2017-08-05T09:08:11.540Z,821.92
2017-08-05T09:09:12.173Z,821.94
2017-08-05T09:10:12.822Z,821.98
2017-08-05T09:11:13.475Z,822.00
2017-08-05T09:12:14.100Z,821.95
2017-08-05T09:13:15.020Z,821.97
2017-08-05T09:14:15.644Z,821.95
2017-08-05T09:15:16.303Z,821.93
2017-08-05T09:16:16.925Z,821.93
2017-08-05T09:17:17.553Z,821.97
2017-08-05T09:18:18.473Z,821.97
2017-08-05T09:19:19.095Z,821.98
2017-08-05T09:20:19.720Z,821.99
2017-08-05T09:21:20.342Z,821.97
2017-08-05T09:22:20.964Z,821.98
2017-08-05T09:23:21.837Z,821.96
2017-08-05T09:24:22.459Z,821.97
2017-08-05T09:25:23.089Z,822.01
2017-08-05T09:26:23.712Z,822.03
2017-08-05T09:27:24.335Z,821.99
2017-08-05T09:28:25.248Z,822.02
2017-08-05T09:29:25.869Z,822.01
2017-08-05T09:30:26.524Z,822.01
2017-08-05T09:31:27.153Z,822.03
2017-08-05T09:32:27.773Z,822.06
2017-08-05T09:33:28.697Z,822.00
2017-08-05T09:34:29.320Z,822.04
2017-08-05T09:35:29.943Z,822.01
2017-08-05T09:36:30.568Z,822.01
2017-08-05T09:37:31.192Z,822.00
2017-08-05T09:38:32.071Z,821.99
2017-08-05T09:39:32.698Z,822.11
2017-08-05T09:40:33.322Z,822.06
2017-08-05T09:41:33.944Z,822.08
2017-08-05T09:42:34.567Z,822.07
2017-08-05T09:43:35.480Z,822.00
2017-08-05T09:44:36.103Z,822.07
2017-08-05T09:45:36.726Z,822.00
2017-08-05T09:46:37.348Z,821.95
2017-08-05T09:47:37.980Z,822.00
2017-08-05T09:48:38.906Z,822.01
2017-08-05T09:49:39.530Z,822.01
2017-08-05T09:50:40.157Z,822.07
2017-08-05T09:51:40.786Z,822.02
2017-08-05T09:52:41.406Z,822.01
2017-08-05T09:53:42.279Z,821.98
2017-08-05T09:54:42.908Z,822.04
2017-08-05T09:55:43.537Z,821.99
2017-08-05T09:56:44.159Z,822.06
2017-08-05T09:57:44.781Z,822.05
2017-08-05T09:58:45.705Z,822.02
2017-08-05T09:59:46.328Z,821.98
2017-08-05T10:00:46.954Z,822.07
2017-08-05T10:01:47.579Z,821.98
2017-08-05T10:02:48.208Z,822.06
2017-08-05T10:03:49.079Z,822.04
2017-08-05T10:04:49.708Z,822.08
2017-08-05T10:05:50.366Z,822.04
2017-08-05T10:06:50.991Z,822.06
2017-08-05T10:07:51.622Z,822.03
2017-08-05T10:08:52.543Z,822.02
2017-08-05T10:09:53.169Z,822.06
2017-08-05T10:10:53.801Z,822.02
2017-08-05T10:11:54.423Z,821.98
2017-08-05T10:12:55.046Z,822.02
2017-08-05T10:13:55.921Z,822.05
2017-08-05T10:14:56.546Z,822.03
2017-08-05T10:15:57.170Z,821.91
2017-08-05T10:16:57.830Z,822.00
2017-08-05T10:17:58.454Z,822.02
2017-08-05T10:18:59.377Z,821.99
2017-08-05T10:20:00.000Z,821.98
2017-08-05T10:21:00.626Z,822.05
2017-08-05T10:22:01.253Z,821.98
2017-08-05T10:23:01.876Z,822.00
2017-08-05T10:24:02.803Z,822.03
2017-08-05T10:25:03.461Z,822.04
2017-08-05T10:26:04.083Z,822.00
2017-08-05T10:27:04.711Z,821.97
2017-08-05T10:28:05.335Z,822.02
2017-08-05T10:29:06.209Z,821.99
2017-08-05T10:30:06.836Z,822.05
2017-08-05T10:31:07.460Z,821.97
2017-08-05T10:32:08.086Z,822.04
2017-08-05T10:33:08.711Z,821.99
2017-08-05T10:34:09.586Z,822.01
2017-08-05T10:35:10.216Z,821.96
2017-08-05T10:36:10.838Z,822.06
2017-08-05T10:37:11.462Z,822.00
2017-08-05T10:38:12.089Z,822.02
2017-08-05T10:39:13.018Z,821.98
2017-08-05T10:40:13.641Z,821.96
2017-08-05T10:41:14.263Z,822.01
2017-08-05T10:42:14.927Z,821.94
2017-08-05T10:43:15.550Z,821.98
2017-08-05T10:44:16.475Z,821.99
2017-08-05T10:45:17.102Z,821.97
2017-08-05T10:46:17.727Z,821.95
2017-08-05T10:47:18.351Z,821.99
2017-08-05T10:48:18.978Z,821.96
2017-08-05T10:49:19.908Z,821.92
2017-08-05T10:50:20.532Z,821.91
2017-08-05T10:51:21.156Z,821.91
2017-08-05T10:52:21.783Z,821.96
2017-08-05T10:53:22.408Z,821.95
2017-08-05T10:54:23.337Z,821.98
2017-08-05T10:55:23.962Z,821.99
2017-08-05T10:56:24.590Z,822.01
2017-08-05T10:57:25.250Z,821.99
2017-08-05T10:58:25.885Z,821.99
2017-08-05T10:59:26.755Z,821.98
2017-08-05T11:00:27.382Z,821.95
2017-08-05T11:01:28.008Z,821.94
2017-08-05T11:02:28.639Z,822.00
2017-08-05T11:03:29.262Z,822.01
2017-08-05T11:04:30.144Z,821.99
2017-08-05T11:05:31.068Z,821.99
2017-08-05T11:06:31.694Z,822.01
2017-08-05T11:07:32.323Z,822.05
2017-08-05T11:08:32.948Z,821.93
2017-08-05T11:09:33.574Z,821.97
2017-08-05T11:10:34.466Z,821.96
2017-08-05T11:11:35.077Z,821.97
2017-08-05T11:12:35.705Z,821.99
2017-08-05T11:13:36.332Z,821.97
2017-08-05T11:14:36.957Z,821.94
2017-08-05T11:15:37.884Z,821.98
2017-08-05T11:16:38.519Z,821.99
2017-08-05T11:17:39.149Z,821.93
2017-08-05T11:18:39.773Z,821.95
2017-08-05T11:19:40.401Z,821.96
2017-08-05T11:20:41.335Z,821.92
2017-08-05T11:21:41.967Z,821.91
2017-08-05T11:22:42.595Z,821.92
2017-08-05T11:23:43.221Z,821.91
2017-08-05T11:24:43.849Z,821.90
2017-08-05T11:25:44.759Z,821.91
2017-08-05T11:26:45.385Z,821.84
2017-08-05T11:27:46.013Z,821.84
2017-08-05T11:28:46.637Z,821.86
2017-08-05T11:29:47.265Z,821.87
2017-08-05T11:30:48.233Z,821.82
2017-08-05T11:31:48.859Z,821.90
2017-08-05T11:32:49.486Z,821.88
2017-08-05T11:33:50.113Z,821.82
2017-08-05T11:34:50.742Z,821.84
2017-08-05T11:35:51.675Z,821.85
2017-08-05T11:36:52.300Z,821.81
2017-08-05T11:37:52.927Z,821.85
2017-08-05T11:38:53.555Z,821.83
2017-08-05T11:39:54.189Z,821.88
2017-08-05T11:40:55.063Z,821.85
2017-08-05T11:41:55.689Z,821.80
2017-08-05T11:42:56.318Z,821.84
2017-08-05T11:43:56.948Z,821.79
2017-08-05T11:44:57.579Z,821.80
2017-08-05T11:45:58.539Z,821.82
2017-08-05T11:46:59.167Z,821.75
2017-08-05T11:47:59.796Z,821.68
2017-08-05T11:49:00.429Z,821.67
2017-08-05T11:50:01.054Z,821.74
2017-08-05T11:51:01.981Z,821.74
2017-08-05T11:52:02.612Z,821.74
2017-08-05T11:53:03.244Z,821.74
2017-08-05T11:54:03.870Z,821.69
2017-08-05T11:55:04.532Z,821.71
2017-08-05T11:56:05.410Z,821.75
2017-08-05T11:57:06.040Z,821.70
2017-08-05T11:58:06.966Z,821.73
2017-08-05T11:59:07.599Z,821.71
2017-08-05T12:00:08.222Z,821.70
2017-08-05T12:01:08.851Z,821.73
2017-08-05T12:02:09.483Z,821.66
2017-08-05T12:03:10.359Z,821.74
2017-08-05T12:04:10.992Z,821.71
2017-08-05T12:05:11.623Z,821.71
2017-08-05T12:06:12.250Z,821.67
2017-08-05T12:07:12.877Z,821.62
2017-08-05T12:08:13.804Z,821.65
2017-08-05T12:09:14.435Z,821.69
2017-08-05T12:10:15.062Z,821.72
2017-08-05T12:11:15.690Z,821.75
2017-08-05T12:12:16.320Z,821.70
2017-08-05T12:13:17.196Z,821.77
2017-08-05T12:14:17.825Z,821.75
2017-08-05T12:15:18.459Z,821.69
2017-08-05T12:16:19.090Z,821.70
2017-08-05T12:17:19.715Z,821.74
2017-08-05T12:18:20.607Z,821.67
2017-08-05T12:19:21.227Z,821.70
2017-08-05T12:20:21.858Z,821.73
2017-08-05T12:21:22.487Z,821.71
2017-08-05T12:22:23.117Z,821.74
2017-08-05T12:23:24.050Z,821.72
2017-08-05T12:24:24.677Z,821.73
2017-08-05T12:25:25.308Z,821.68
2017-08-05T12:26:25.937Z,821.68
2017-08-05T12:27:26.602Z,821.70
2017-08-05T12:28:27.529Z,821.72
2017-08-05T12:29:28.158Z,821.73
2017-08-05T12:30:28.827Z,821.70
2017-08-05T12:31:29.459Z,821.50
2017-08-05T12:32:30.118Z,821.55
2017-08-05T12:33:30.995Z,821.52
2017-08-05T12:34:31.630Z,821.59
2017-08-05T12:35:32.257Z,821.59
2017-08-05T12:36:32.890Z,821.58